sensor_id;sensor_type;location;lat;lon;timestamp;temperature;humidity
36654;DHT22;22650;49.350;20.898;2023-07-31T00:02:23;16.70;99.90
36654;DHT22;22650;49.350;20.898;2023-07-31T00:04:58;16.70;99.90
36654;DHT22;22650;49.350;20.898;2023-07-31T00:07:35;16.60;99.90
36654;DHT22;22650;49.350;20.898;2023-07-31T00:10:17;16.60;99.90
36654;DHT22;22650;49.350;20.898;2023-07-31T00:12:52;16.50;99.90
36654;DHT22;22650;49.350;20.898;2023-07-31T00:15:30;16.50;99.90
36654;DHT22;22650;49.350;20.898;2023-07-31T00:18:10;16.50;99.90
36654;DHT22;22650;49.350;20.898;2023-07-31T00:20:52;16.50;99.90
36654;DHT22;22650;49.350;20.898;2023-07-31T00:23:30;16.40;99.90
36654;DHT22;22650;49.350;20.898;2023-07-31T00:26:28;16.40;99.90
36654;DHT22;22650;49.350;20.898;2023-07-31T00:29:32;16.30;99.90
36654;DHT22;22650;49.350;20.898;2023-07-31T00:32:25;16.30;99.90
36654;DHT22;22650;49.350;20.898;2023-07-31T00:35:04;16.20;99.90
36654;DHT22;22650;49.350;20.898;2023-07-31T00:37:42;16.20;99.90
36654;DHT22;22650;49.350;20.898;2023-07-31T00:40:17;16.10;99.90
36654;DHT22;22650;49.350;20.898;2023-07-31T00:42:51;16.10;99.90
36654;DHT22;22650;49.350;20.898;2023-07-31T00:45:24;16.00;99.90
36654;DHT22;22650;49.350;20.898;2023-07-31T00:48:00;16.00;99.90
36654;DHT22;22650;49.350;20.898;2023-07-31T00:50:36;15.90;99.90
36654;DHT22;22650;49.350;20.898;2023-07-31T00:53:10;15.90;99.90
36654;DHT22;22650;49.350;20.898;2023-07-31T00:55:44;15.90;99.90
36654;DHT22;22650;49.350;20.898;2023-07-31T00:58:19;15.80;99.90
36654;DHT22;22650;49.350;20.898;2023-07-31T01:00:53;15.80;99.90
36654;DHT22;22650;49.350;20.898;2023-07-31T01:03:27;15.70;99.90
36654;DHT22;22650;49.350;20.898;2023-07-31T01:06:13;15.70;99.90
36654;DHT22;22650;49.350;20.898;2023-07-31T01:08:57;15.70;99.90
36654;DHT22;22650;49.350;20.898;2023-07-31T01:11:41;15.70;99.90
36654;DHT22;22650;49.350;20.898;2023-07-31T01:14:19;15.70;99.90
36654;DHT22;22650;49.350;20.898;2023-07-31T01:16:56;15.70;99.90
36654;DHT22;22650;49.350;20.898;2023-07-31T01:19:31;15.70;99.90
36654;DHT22;22650;49.350;20.898;2023-07-31T01:22:30;15.70;99.90
36654;DHT22;22650;49.350;20.898;2023-07-31T01:25:14;15.70;99.90
36654;DHT22;22650;49.350;20.898;2023-07-31T01:27:59;15.70;99.90
36654;DHT22;22650;49.350;20.898;2023-07-31T01:30:41;15.70;99.90
36654;DHT22;22650;49.350;20.898;2023-07-31T01:33:16;15.70;99.90
36654;DHT22;22650;49.350;20.898;2023-07-31T01:35:51;15.80;99.90
36654;DHT22;22650;49.350;20.898;2023-07-31T01:38:26;15.80;99.90
36654;DHT22;22650;49.350;20.898;2023-07-31T01:41:07;15.80;99.90
36654;DHT22;22650;49.350;20.898;2023-07-31T01:43:58;15.80;99.90
36654;DHT22;22650;49.350;20.898;2023-07-31T01:46:32;15.80;99.90
36654;DHT22;22650;49.350;20.898;2023-07-31T01:49:07;15.80;99.90
36654;DHT22;22650;49.350;20.898;2023-07-31T01:51:41;15.80;99.90
36654;DHT22;22650;49.350;20.898;2023-07-31T01:54:15;15.80;99.90
36654;DHT22;22650;49.350;20.898;2023-07-31T01:56:49;15.80;99.90
36654;DHT22;22650;49.350;20.898;2023-07-31T01:59:25;15.80;99.90
36654;DHT22;22650;49.350;20.898;2023-07-31T02:01:59;15.80;99.90
36654;DHT22;22650;49.350;20.898;2023-07-31T02:04:35;15.80;99.90
36654;DHT22;22650;49.350;20.898;2023-07-31T02:07:10;15.80;99.90
36654;DHT22;22650;49.350;20.898;2023-07-31T02:09:44;15.80;99.90
36654;DHT22;22650;49.350;20.898;2023-07-31T02:12:20;15.80;99.90
36654;DHT22;22650;49.350;20.898;2023-07-31T02:14:55;15.80;99.90
36654;DHT22;22650;49.350;20.898;2023-07-31T02:17:29;15.80;99.90
36654;DHT22;22650;49.350;20.898;2023-07-31T02:20:06;15.70;99.90
36654;DHT22;22650;49.350;20.898;2023-07-31T02:22:40;15.70;99.90
36654;DHT22;22650;49.350;20.898;2023-07-31T02:25:14;15.70;99.90
36654;DHT22;22650;49.350;20.898;2023-07-31T02:27:50;15.70;99.90
36654;DHT22;22650;49.350;20.898;2023-07-31T02:30:25;15.70;99.90
36654;DHT22;22650;49.350;20.898;2023-07-31T02:32:59;15.70;99.90
36654;DHT22;22650;49.350;20.898;2023-07-31T02:35:33;15.70;99.90
36654;DHT22;22650;49.350;20.898;2023-07-31T02:38:07;15.60;99.90
36654;DHT22;22650;49.350;20.898;2023-07-31T02:40:41;15.60;99.90
36654;DHT22;22650;49.350;20.898;2023-07-31T02:43:15;15.60;99.90
36654;DHT22;22650;49.350;20.898;2023-07-31T02:45:52;15.60;99.90
36654;DHT22;22650;49.350;20.898;2023-07-31T02:48:28;15.60;99.90
36654;DHT22;22650;49.350;20.898;2023-07-31T02:51:02;15.60;99.90
36654;DHT22;22650;49.350;20.898;2023-07-31T02:53:36;15.60;99.90
36654;DHT22;22650;49.350;20.898;2023-07-31T02:56:10;15.50;99.90
36654;DHT22;22650;49.350;20.898;2023-07-31T02:58:44;15.50;99.90
36654;DHT22;22650;49.350;20.898;2023-07-31T03:01:19;15.50;99.90
36654;DHT22;22650;49.350;20.898;2023-07-31T03:03:53;15.50;99.90
36654;DHT22;22650;49.350;20.898;2023-07-31T03:06:27;15.50;99.90
36654;DHT22;22650;49.350;20.898;2023-07-31T03:09:01;15.50;99.90
36654;DHT22;22650;49.350;20.898;2023-07-31T03:11:35;15.50;99.90
36654;DHT22;22650;49.350;20.898;2023-07-31T03:14:09;15.50;99.90
36654;DHT22;22650;49.350;20.898;2023-07-31T03:16:44;15.50;99.90
36654;DHT22;22650;49.350;20.898;2023-07-31T03:19:18;15.50;99.90
36654;DHT22;22650;49.350;20.898;2023-07-31T03:21:52;15.50;99.90
36654;DHT22;22650;49.350;20.898;2023-07-31T03:24:28;15.40;99.90
36654;DHT22;22650;49.350;20.898;2023-07-31T03:27:03;15.50;99.90
36654;DHT22;22650;49.350;20.898;2023-07-31T03:29:38;15.40;99.90
36654;DHT22;22650;49.350;20.898;2023-07-31T03:32:13;15.40;99.90
36654;DHT22;22650;49.350;20.898;2023-07-31T03:34:47;15.40;99.90
36654;DHT22;22650;49.350;20.898;2023-07-31T03:37:21;15.40;99.90
36654;DHT22;22650;49.350;20.898;2023-07-31T03:39:55;15.40;99.90
36654;DHT22;22650;49.350;20.898;2023-07-31T03:42:29;15.40;99.90
36654;DHT22;22650;49.350;20.898;2023-07-31T03:45:04;15.30;99.90
36654;DHT22;22650;49.350;20.898;2023-07-31T03:47:40;15.30;99.90
36654;DHT22;22650;49.350;20.898;2023-07-31T03:50:15;15.30;99.90
36654;DHT22;22650;49.350;20.898;2023-07-31T03:52:49;15.30;99.90
36654;DHT22;22650;49.350;20.898;2023-07-31T03:55:23;15.30;99.90
36654;DHT22;22650;49.350;20.898;2023-07-31T03:57:58;15.30;99.90
36654;DHT22;22650;49.350;20.898;2023-07-31T04:00:33;15.30;99.90
36654;DHT22;22650;49.350;20.898;2023-07-31T04:03:09;15.30;99.90
36654;DHT22;22650;49.350;20.898;2023-07-31T04:05:42;15.30;99.90
36654;DHT22;22650;49.350;20.898;2023-07-31T04:08:16;15.30;99.90
36654;DHT22;22650;49.350;20.898;2023-07-31T04:10:50;15.20;99.90
36654;DHT22;22650;49.350;20.898;2023-07-31T04:13:24;15.20;99.90
36654;DHT22;22650;49.350;20.898;2023-07-31T04:16:00;15.20;99.90
36654;DHT22;22650;49.350;20.898;2023-07-31T04:18:35;15.20;99.90
36654;DHT22;22650;49.350;20.898;2023-07-31T04:21:09;15.20;99.90
36654;DHT22;22650;49.350;20.898;2023-07-31T04:23:43;15.20;99.90
36654;DHT22;22650;49.350;20.898;2023-07-31T04:26:17;15.20;99.90
36654;DHT22;22650;49.350;20.898;2023-07-31T04:28:51;15.20;99.90
36654;DHT22;22650;49.350;20.898;2023-07-31T04:31:25;15.30;99.90
36654;DHT22;22650;49.350;20.898;2023-07-31T04:34:03;15.30;99.90
36654;DHT22;22650;49.350;20.898;2023-07-31T04:36:38;15.30;99.90
36654;DHT22;22650;49.350;20.898;2023-07-31T04:39:12;15.40;99.90
36654;DHT22;22650;49.350;20.898;2023-07-31T04:41:47;15.40;99.90
36654;DHT22;22650;49.350;20.898;2023-07-31T04:44:21;15.40;99.90
36654;DHT22;22650;49.350;20.898;2023-07-31T04:46:59;15.50;99.90
36654;DHT22;22650;49.350;20.898;2023-07-31T04:49:51;15.50;99.90
36654;DHT22;22650;49.350;20.898;2023-07-31T04:52:31;15.60;99.90
36654;DHT22;22650;49.350;20.898;2023-07-31T04:55:10;15.60;99.90
36654;DHT22;22650;49.350;20.898;2023-07-31T04:57:55;15.70;99.90
36654;DHT22;22650;49.350;20.898;2023-07-31T05:05:06;15.80;99.90
36654;DHT22;22650;49.350;20.898;2023-07-31T05:07:48;15.80;99.90
36654;DHT22;22650;49.350;20.898;2023-07-31T05:12:04;15.90;99.90
36654;DHT22;22650;49.350;20.898;2023-07-31T05:15:13;16.00;99.90
36654;DHT22;22650;49.350;20.898;2023-07-31T05:18:58;16.10;99.90
36654;DHT22;22650;49.350;20.898;2023-07-31T05:21:38;16.20;99.90
36654;DHT22;22650;49.350;20.898;2023-07-31T05:24:29;16.20;99.90
36654;DHT22;22650;49.350;20.898;2023-07-31T05:27:15;16.30;99.90
36654;DHT22;22650;49.350;20.898;2023-07-31T05:30:04;16.30;99.90
36654;DHT22;22650;49.350;20.898;2023-07-31T05:33:06;16.40;99.90
36654;DHT22;22650;49.350;20.898;2023-07-31T05:35:56;16.50;99.90
36654;DHT22;22650;49.350;20.898;2023-07-31T05:38:38;16.50;99.90
36654;DHT22;22650;49.350;20.898;2023-07-31T05:41:15;16.50;99.90
36654;DHT22;22650;49.350;20.898;2023-07-31T05:43:52;16.60;99.90
36654;DHT22;22650;49.350;20.898;2023-07-31T05:46:40;16.60;99.90
36654;DHT22;22650;49.350;20.898;2023-07-31T05:49:15;16.70;99.90
36654;DHT22;22650;49.350;20.898;2023-07-31T05:51:49;16.80;99.90
36654;DHT22;22650;49.350;20.898;2023-07-31T05:54:24;16.80;99.90
36654;DHT22;22650;49.350;20.898;2023-07-31T05:56:58;16.80;99.90
36654;DHT22;22650;49.350;20.898;2023-07-31T05:59:32;16.90;99.90
36654;DHT22;22650;49.350;20.898;2023-07-31T06:02:06;17.00;99.90
36654;DHT22;22650;49.350;20.898;2023-07-31T06:04:41;17.10;99.90
36654;DHT22;22650;49.350;20.898;2023-07-31T06:07:16;17.20;99.90
36654;DHT22;22650;49.350;20.898;2023-07-31T06:09:51;17.30;99.90
36654;DHT22;22650;49.350;20.898;2023-07-31T06:12:27;17.40;99.90
36654;DHT22;22650;49.350;20.898;2023-07-31T06:15:03;17.50;99.90
36654;DHT22;22650;49.350;20.898;2023-07-31T06:17:37;17.60;99.90
36654;DHT22;22650;49.350;20.898;2023-07-31T06:20:11;17.70;99.90
36654;DHT22;22650;49.350;20.898;2023-07-31T06:22:46;17.80;99.90
36654;DHT22;22650;49.350;20.898;2023-07-31T06:25:22;17.90;99.90
36654;DHT22;22650;49.350;20.898;2023-07-31T06:27:57;18.00;99.90
36654;DHT22;22650;49.350;20.898;2023-07-31T06:30:32;18.10;99.90
36654;DHT22;22650;49.350;20.898;2023-07-31T06:33:11;18.30;99.90
36654;DHT22;22650;49.350;20.898;2023-07-31T06:35:51;18.50;99.90
36654;DHT22;22650;49.350;20.898;2023-07-31T06:38:31;18.70;99.90
36654;DHT22;22650;49.350;20.898;2023-07-31T06:45:32;19.10;99.90
36654;DHT22;22650;49.350;20.898;2023-07-31T06:48:16;19.30;99.90
36654;DHT22;22650;49.350;20.898;2023-07-31T06:50:50;19.40;99.90
36654;DHT22;22650;49.350;20.898;2023-07-31T06:53:27;19.50;99.90
36654;DHT22;22650;49.350;20.898;2023-07-31T06:56:20;19.70;99.90
36654;DHT22;22650;49.350;20.898;2023-07-31T06:59:13;19.80;99.90
36654;DHT22;22650;49.350;20.898;2023-07-31T07:01:53;19.90;99.90
36654;DHT22;22650;49.350;20.898;2023-07-31T07:04:41;20.10;99.90
36654;DHT22;22650;49.350;20.898;2023-07-31T07:07:50;20.30;99.90
36654;DHT22;22650;49.350;20.898;2023-07-31T07:10:41;20.50;99.90
36654;DHT22;22650;49.350;20.898;2023-07-31T07:14:30;20.70;99.90
36654;DHT22;22650;49.350;20.898;2023-07-31T07:17:42;20.80;99.90
36654;DHT22;22650;49.350;20.898;2023-07-31T07:24:07;21.20;99.90
36654;DHT22;22650;49.350;20.898;2023-07-31T07:27:00;21.30;99.90
36654;DHT22;22650;49.350;20.898;2023-07-31T07:29:44;21.40;99.90
36654;DHT22;22650;49.350;20.898;2023-07-31T07:32:21;21.40;99.90
36654;DHT22;22650;49.350;20.898;2023-07-31T07:34:56;21.40;99.90
36654;DHT22;22650;49.350;20.898;2023-07-31T07:37:30;21.40;99.90
36654;DHT22;22650;49.350;20.898;2023-07-31T07:40:06;21.50;99.90
36654;DHT22;22650;49.350;20.898;2023-07-31T07:42:46;21.60;99.90
36654;DHT22;22650;49.350;20.898;2023-07-31T07:45:20;21.70;99.90
36654;DHT22;22650;49.350;20.898;2023-07-31T07:47:56;21.80;99.90
36654;DHT22;22650;49.350;20.898;2023-07-31T07:50:33;22.00;99.90
36654;DHT22;22650;49.350;20.898;2023-07-31T07:53:07;22.20;99.90
36654;DHT22;22650;49.350;20.898;2023-07-31T07:55:42;22.30;99.90
36654;DHT22;22650;49.350;20.898;2023-07-31T07:58:16;22.40;99.90
36654;DHT22;22650;49.350;20.898;2023-07-31T08:00:55;22.60;99.90
36654;DHT22;22650;49.350;20.898;2023-07-31T08:03:29;22.60;99.90
36654;DHT22;22650;49.350;20.898;2023-07-31T08:06:05;22.60;99.90
36654;DHT22;22650;49.350;20.898;2023-07-31T08:08:41;22.60;99.90
36654;DHT22;22650;49.350;20.898;2023-07-31T08:11:15;22.60;99.90
36654;DHT22;22650;49.350;20.898;2023-07-31T08:13:49;22.70;99.90
36654;DHT22;22650;49.350;20.898;2023-07-31T08:16:28;22.80;99.90
36654;DHT22;22650;49.350;20.898;2023-07-31T08:19:06;22.80;99.90
36654;DHT22;22650;49.350;20.898;2023-07-31T08:21:42;23.10;99.90
36654;DHT22;22650;49.350;20.898;2023-07-31T08:24:16;23.20;99.90
36654;DHT22;22650;49.350;20.898;2023-07-31T08:26:50;23.40;99.90
36654;DHT22;22650;49.350;20.898;2023-07-31T08:29:25;23.50;99.90
36654;DHT22;22650;49.350;20.898;2023-07-31T08:31:59;23.60;99.90
36654;DHT22;22650;49.350;20.898;2023-07-31T08:34:33;23.50;99.90
36654;DHT22;22650;49.350;20.898;2023-07-31T08:37:08;23.60;99.90
36654;DHT22;22650;49.350;20.898;2023-07-31T08:39:44;23.60;99.90
36654;DHT22;22650;49.350;20.898;2023-07-31T08:42:18;23.60;99.90
36654;DHT22;22650;49.350;20.898;2023-07-31T08:44:52;23.60;99.90
36654;DHT22;22650;49.350;20.898;2023-07-31T08:47:27;23.60;99.90
36654;DHT22;22650;49.350;20.898;2023-07-31T08:50:02;23.60;99.90
36654;DHT22;22650;49.350;20.898;2023-07-31T08:52:38;23.60;99.90
36654;DHT22;22650;49.350;20.898;2023-07-31T08:55:12;23.70;99.90
36654;DHT22;22650;49.350;20.898;2023-07-31T08:57:47;23.70;99.90
36654;DHT22;22650;49.350;20.898;2023-07-31T09:00:23;23.70;99.90
36654;DHT22;22650;49.350;20.898;2023-07-31T09:03:02;23.80;99.90
36654;DHT22;22650;49.350;20.898;2023-07-31T09:05:36;23.80;99.90
36654;DHT22;22650;49.350;20.898;2023-07-31T09:08:17;23.70;99.90
36654;DHT22;22650;49.350;20.898;2023-07-31T09:10:51;23.80;99.90
36654;DHT22;22650;49.350;20.898;2023-07-31T09:13:29;23.70;99.90
36654;DHT22;22650;49.350;20.898;2023-07-31T09:16:03;23.70;99.90
36654;DHT22;22650;49.350;20.898;2023-07-31T09:18:53;23.70;99.90
36654;DHT22;22650;49.350;20.898;2023-07-31T09:21:45;23.70;99.90
36654;DHT22;22650;49.350;20.898;2023-07-31T09:24:30;23.70;99.90
36654;DHT22;22650;49.350;20.898;2023-07-31T09:27:06;23.70;99.90
36654;DHT22;22650;49.350;20.898;2023-07-31T09:29:39;23.70;99.90
36654;DHT22;22650;49.350;20.898;2023-07-31T09:32:16;23.60;99.90
36654;DHT22;22650;49.350;20.898;2023-07-31T09:34:50;23.50;99.90
36654;DHT22;22650;49.350;20.898;2023-07-31T09:37:24;23.40;99.90
36654;DHT22;22650;49.350;20.898;2023-07-31T09:39:59;23.30;99.90
36654;DHT22;22650;49.350;20.898;2023-07-31T09:42:34;23.20;99.90
36654;DHT22;22650;49.350;20.898;2023-07-31T09:45:09;23.20;99.90
36654;DHT22;22650;49.350;20.898;2023-07-31T09:47:46;23.20;99.90
36654;DHT22;22650;49.350;20.898;2023-07-31T09:50:22;23.30;99.90
36654;DHT22;22650;49.350;20.898;2023-07-31T09:52:56;23.40;99.90
36654;DHT22;22650;49.350;20.898;2023-07-31T09:55:31;23.50;99.90
36654;DHT22;22650;49.350;20.898;2023-07-31T09:58:06;23.60;99.90
36654;DHT22;22650;49.350;20.898;2023-07-31T10:00:40;23.70;99.90
36654;DHT22;22650;49.350;20.898;2023-07-31T10:03:15;23.70;99.90
36654;DHT22;22650;49.350;20.898;2023-07-31T10:05:50;23.70;99.90
36654;DHT22;22650;49.350;20.898;2023-07-31T10:08:28;23.70;99.90
36654;DHT22;22650;49.350;20.898;2023-07-31T10:11:05;23.70;99.90
36654;DHT22;22650;49.350;20.898;2023-07-31T10:13:41;23.80;99.90
36654;DHT22;22650;49.350;20.898;2023-07-31T10:16:16;23.80;99.90
36654;DHT22;22650;49.350;20.898;2023-07-31T10:18:50;23.90;99.90
36654;DHT22;22650;49.350;20.898;2023-07-31T10:21:25;24.00;99.90
36654;DHT22;22650;49.350;20.898;2023-07-31T10:23:59;24.10;99.90
36654;DHT22;22650;49.350;20.898;2023-07-31T10:26:35;24.30;99.90
36654;DHT22;22650;49.350;20.898;2023-07-31T10:29:11;24.60;99.90
36654;DHT22;22650;49.350;20.898;2023-07-31T10:31:47;24.80;99.90
36654;DHT22;22650;49.350;20.898;2023-07-31T10:34:21;25.00;99.90
36654;DHT22;22650;49.350;20.898;2023-07-31T10:37:20;25.10;99.90
36654;DHT22;22650;49.350;20.898;2023-07-31T10:39:58;25.30;99.90
36654;DHT22;22650;49.350;20.898;2023-07-31T10:42:36;25.30;99.90
36654;DHT22;22650;49.350;20.898;2023-07-31T10:45:11;25.30;99.90
36654;DHT22;22650;49.350;20.898;2023-07-31T10:47:46;25.30;99.90
36654;DHT22;22650;49.350;20.898;2023-07-31T10:50:21;25.30;99.90
36654;DHT22;22650;49.350;20.898;2023-07-31T10:52:57;25.30;99.90
36654;DHT22;22650;49.350;20.898;2023-07-31T10:55:32;25.30;99.90
36654;DHT22;22650;49.350;20.898;2023-07-31T10:58:09;25.30;99.90
36654;DHT22;22650;49.350;20.898;2023-07-31T11:00:44;25.30;99.90
36654;DHT22;22650;49.350;20.898;2023-07-31T11:03:19;25.40;99.90
36654;DHT22;22650;49.350;20.898;2023-07-31T11:06:00;25.50;99.90
36654;DHT22;22650;49.350;20.898;2023-07-31T11:08:40;25.60;99.90
36654;DHT22;22650;49.350;20.898;2023-07-31T11:11:17;25.70;99.90
36654;DHT22;22650;49.350;20.898;2023-07-31T11:13:53;25.60;98.20
36654;DHT22;22650;49.350;20.898;2023-07-31T11:16:28;25.50;97.00
36654;DHT22;22650;49.350;20.898;2023-07-31T11:19:02;25.50;98.70
36654;DHT22;22650;49.350;20.898;2023-07-31T11:21:36;25.50;99.60
36654;DHT22;22650;49.350;20.898;2023-07-31T11:24:12;25.50;99.90
36654;DHT22;22650;49.350;20.898;2023-07-31T11:26:50;25.60;99.00
36654;DHT22;22650;49.350;20.898;2023-07-31T11:29:27;25.70;99.90
36654;DHT22;22650;49.350;20.898;2023-07-31T11:32:01;25.70;98.30
36654;DHT22;22650;49.350;20.898;2023-07-31T11:34:51;25.80;99.50
36654;DHT22;22650;49.350;20.898;2023-07-31T11:37:25;25.90;96.80
36654;DHT22;22650;49.350;20.898;2023-07-31T11:40:12;25.90;97.40
36654;DHT22;22650;49.350;20.898;2023-07-31T11:42:46;25.80;98.50
36654;DHT22;22650;49.350;20.898;2023-07-31T11:45:21;25.70;97.50
36654;DHT22;22650;49.350;20.898;2023-07-31T11:47:57;25.60;96.20
36654;DHT22;22650;49.350;20.898;2023-07-31T11:50:33;25.60;95.10
36654;DHT22;22650;49.350;20.898;2023-07-31T11:53:09;25.60;98.20
36654;DHT22;22650;49.350;20.898;2023-07-31T11:55:44;25.40;96.60
36654;DHT22;22650;49.350;20.898;2023-07-31T11:58:19;25.50;96.90
36654;DHT22;22650;49.350;20.898;2023-07-31T12:00:54;25.60;97.20
36654;DHT22;22650;49.350;20.898;2023-07-31T12:03:29;25.60;97.10
36654;DHT22;22650;49.350;20.898;2023-07-31T12:06:03;25.70;97.90
36654;DHT22;22650;49.350;20.898;2023-07-31T12:08:36;25.70;97.00
36654;DHT22;22650;49.350;20.898;2023-07-31T12:11:10;25.80;97.60
36654;DHT22;22650;49.350;20.898;2023-07-31T12:13:45;25.80;97.70
36654;DHT22;22650;49.350;20.898;2023-07-31T12:16:20;25.70;95.90
36654;DHT22;22650;49.350;20.898;2023-07-31T12:18:54;25.70;96.60
36654;DHT22;22650;49.350;20.898;2023-07-31T12:21:28;25.60;95.60
36654;DHT22;22650;49.350;20.898;2023-07-31T12:24:02;25.70;95.60
36654;DHT22;22650;49.350;20.898;2023-07-31T12:26:35;25.80;95.50
36654;DHT22;22650;49.350;20.898;2023-07-31T12:29:10;25.90;96.80
36654;DHT22;22650;49.350;20.898;2023-07-31T12:31:45;26.10;95.60
36654;DHT22;22650;49.350;20.898;2023-07-31T12:34:20;26.40;96.90
36654;DHT22;22650;49.350;20.898;2023-07-31T12:36:54;26.70;96.40
36654;DHT22;22650;49.350;20.898;2023-07-31T12:39:29;27.10;96.30
36654;DHT22;22650;49.350;20.898;2023-07-31T12:42:03;27.30;93.50
36654;DHT22;22650;49.350;20.898;2023-07-31T12:44:36;27.50;93.00
36654;DHT22;22650;49.350;20.898;2023-07-31T12:47:11;27.80;93.70
36654;DHT22;22650;49.350;20.898;2023-07-31T12:49:47;28.00;91.10
36654;DHT22;22650;49.350;20.898;2023-07-31T12:52:21;28.00;90.20
36654;DHT22;22650;49.350;20.898;2023-07-31T12:54:54;28.10;89.60
36654;DHT22;22650;49.350;20.898;2023-07-31T12:57:28;28.30;91.10
36654;DHT22;22650;49.350;20.898;2023-07-31T13:00:02;28.40;90.50
36654;DHT22;22650;49.350;20.898;2023-07-31T13:02:37;28.50;87.30
36654;DHT22;22650;49.350;20.898;2023-07-31T13:05:11;28.50;89.70
36654;DHT22;22650;49.350;20.898;2023-07-31T13:07:45;28.50;87.40
36654;DHT22;22650;49.350;20.898;2023-07-31T13:10:22;28.50;85.90
36654;DHT22;22650;49.350;20.898;2023-07-31T13:12:56;28.40;84.60
36654;DHT22;22650;49.350;20.898;2023-07-31T13:15:30;28.30;83.70
36654;DHT22;22650;49.350;20.898;2023-07-31T13:18:05;28.30;85.00
36654;DHT22;22650;49.350;20.898;2023-07-31T13:20:38;28.30;86.20
36654;DHT22;22650;49.350;20.898;2023-07-31T13:23:12;28.20;86.40
36654;DHT22;22650;49.350;20.898;2023-07-31T13:25:46;28.30;88.40
36654;DHT22;22650;49.350;20.898;2023-07-31T13:28:19;28.40;88.40
36654;DHT22;22650;49.350;20.898;2023-07-31T13:30:53;28.40;87.80
36654;DHT22;22650;49.350;20.898;2023-07-31T13:33:28;28.40;87.80
36654;DHT22;22650;49.350;20.898;2023-07-31T13:36:09;28.30;85.40
36654;DHT22;22650;49.350;20.898;2023-07-31T13:38:43;28.10;86.70
36654;DHT22;22650;49.350;20.898;2023-07-31T13:41:17;27.90;84.70
36654;DHT22;22650;49.350;20.898;2023-07-31T13:43:51;27.90;87.20
36654;DHT22;22650;49.350;20.898;2023-07-31T13:46:25;27.90;88.60
36654;DHT22;22650;49.350;20.898;2023-07-31T13:49:00;28.00;87.90
36654;DHT22;22650;49.350;20.898;2023-07-31T13:51:34;28.00;86.20
36654;DHT22;22650;49.350;20.898;2023-07-31T13:54:07;28.00;87.20
36654;DHT22;22650;49.350;20.898;2023-07-31T13:56:44;28.00;85.40
36654;DHT22;22650;49.350;20.898;2023-07-31T13:59:19;28.20;88.00
36654;DHT22;22650;49.350;20.898;2023-07-31T14:01:53;28.30;86.00
36654;DHT22;22650;49.350;20.898;2023-07-31T14:04:28;28.20;83.60
36654;DHT22;22650;49.350;20.898;2023-07-31T14:07:02;28.40;85.00
36654;DHT22;22650;49.350;20.898;2023-07-31T14:09:36;28.50;84.90
36654;DHT22;22650;49.350;20.898;2023-07-31T14:12:10;28.70;84.50
36654;DHT22;22650;49.350;20.898;2023-07-31T14:14:44;28.80;83.10
36654;DHT22;22650;49.350;20.898;2023-07-31T14:17:18;28.90;83.00
36654;DHT22;22650;49.350;20.898;2023-07-31T14:19:53;29.10;82.80
36654;DHT22;22650;49.350;20.898;2023-07-31T14:22:28;29.20;80.70
36654;DHT22;22650;49.350;20.898;2023-07-31T14:25:02;29.20;82.30
36654;DHT22;22650;49.350;20.898;2023-07-31T14:27:36;29.20;82.60
36654;DHT22;22650;49.350;20.898;2023-07-31T14:30:09;29.30;80.40
36654;DHT22;22650;49.350;20.898;2023-07-31T14:32:43;29.20;78.40
36654;DHT22;22650;49.350;20.898;2023-07-31T14:35:18;29.20;79.50
36654;DHT22;22650;49.350;20.898;2023-07-31T14:37:52;29.10;78.00
36654;DHT22;22650;49.350;20.898;2023-07-31T14:40:26;29.20;79.70
36654;DHT22;22650;49.350;20.898;2023-07-31T14:42:59;29.20;76.70
36654;DHT22;22650;49.350;20.898;2023-07-31T14:45:33;29.20;76.40
36654;DHT22;22650;49.350;20.898;2023-07-31T14:48:07;29.30;76.30
36654;DHT22;22650;49.350;20.898;2023-07-31T14:50:42;29.30;76.20
36654;DHT22;22650;49.350;20.898;2023-07-31T14:53:16;29.20;75.40
36654;DHT22;22650;49.350;20.898;2023-07-31T14:55:49;29.20;76.40
36654;DHT22;22650;49.350;20.898;2023-07-31T14:58:23;29.30;75.90
36654;DHT22;22650;49.350;20.898;2023-07-31T15:00:57;29.30;76.50
36654;DHT22;22650;49.350;20.898;2023-07-31T15:03:32;29.30;76.90
36654;DHT22;22650;49.350;20.898;2023-07-31T15:06:07;29.30;75.00
36654;DHT22;22650;49.350;20.898;2023-07-31T15:08:41;29.10;74.20
36654;DHT22;22650;49.350;20.898;2023-07-31T15:11:15;28.90;75.30
36654;DHT22;22650;49.350;20.898;2023-07-31T15:13:48;28.80;75.60
36654;DHT22;22650;49.350;20.898;2023-07-31T15:16:22;28.80;75.80
36654;DHT22;22650;49.350;20.898;2023-07-31T15:18:56;28.70;76.10
36654;DHT22;22650;49.350;20.898;2023-07-31T15:21:31;28.70;76.70
36654;DHT22;22650;49.350;20.898;2023-07-31T15:24:04;28.80;76.00
36654;DHT22;22650;49.350;20.898;2023-07-31T15:26:38;28.70;75.70
36654;DHT22;22650;49.350;20.898;2023-07-31T15:29:13;28.70;75.50
36654;DHT22;22650;49.350;20.898;2023-07-31T15:31:51;28.70;76.10
36654;DHT22;22650;49.350;20.898;2023-07-31T15:34:25;28.70;75.40
36654;DHT22;22650;49.350;20.898;2023-07-31T15:37:00;28.60;75.60
36654;DHT22;22650;49.350;20.898;2023-07-31T15:39:34;28.60;75.20
36654;DHT22;22650;49.350;20.898;2023-07-31T15:42:07;28.50;75.80
36654;DHT22;22650;49.350;20.898;2023-07-31T15:44:41;28.40;76.70
36654;DHT22;22650;49.350;20.898;2023-07-31T15:47:15;28.40;77.30
36654;DHT22;22650;49.350;20.898;2023-07-31T15:49:48;28.30;77.30
36654;DHT22;22650;49.350;20.898;2023-07-31T15:52:23;28.30;82.00
36654;DHT22;22650;49.350;20.898;2023-07-31T15:54:57;28.30;80.60
36654;DHT22;22650;49.350;20.898;2023-07-31T15:57:31;28.20;80.10
36654;DHT22;22650;49.350;20.898;2023-07-31T16:00:05;28.10;79.70
36654;DHT22;22650;49.350;20.898;2023-07-31T16:02:41;28.00;80.70
36654;DHT22;22650;49.350;20.898;2023-07-31T16:05:15;27.90;82.30
36654;DHT22;22650;49.350;20.898;2023-07-31T16:07:50;27.80;84.60
36654;DHT22;22650;49.350;20.898;2023-07-31T16:10:24;27.70;86.60
36654;DHT22;22650;49.350;20.898;2023-07-31T16:12:57;27.50;85.90
36654;DHT22;22650;49.350;20.898;2023-07-31T16:15:31;27.50;83.40
36654;DHT22;22650;49.350;20.898;2023-07-31T16:18:05;27.40;83.00
36654;DHT22;22650;49.350;20.898;2023-07-31T16:20:39;27.40;85.00
36654;DHT22;22650;49.350;20.898;2023-07-31T16:23:14;27.30;85.90
36654;DHT22;22650;49.350;20.898;2023-07-31T16:25:48;27.30;85.60
36654;DHT22;22650;49.350;20.898;2023-07-31T16:28:22;27.30;84.90
36654;DHT22;22650;49.350;20.898;2023-07-31T16:30:55;27.20;85.40